Time;durP1;ratioP1;P1;durP2;ratioP2;P2;SDS_P1;SDS_P2;PMS_P1;PMS_P2;Temp;Humidity;BMP_temperature;BMP_pressure;BME280_temperature;BME280_humidity;BME280_pressure;Samples;Min_cycle;Max_cycle;Signal;HPM_P1;HPM_P2
2023/12/18 00:00:31;;;;;;;8.20;7.60;;;3.30;99.90;;;;;;4965748;28;20485;-72
2023/12/18 00:02:56;;;;;;;7.10;6.70;;;3.30;99.90;;;;;;4956340;28;20508;-71
2023/12/18 00:05:22;;;;;;;6.35;5.95;;;3.30;99.90;;;;;;4965354;28;20466;-72
2023/12/18 00:07:48;;;;;;;6.82;6.22;;;3.20;99.90;;;;;;4952974;28;20034;-72
2023/12/18 00:10:13;;;;;;;7.07;6.45;;;3.20;99.90;;;;;;4954724;28;20027;-72
2023/12/18 00:12:39;;;;;;;8.27;7.47;;;3.30;99.90;;;;;;4972167;28;20113;-71
2023/12/18 00:15:06;;;;;;;6.55;6.15;;;3.30;99.90;;;;;;4964287;28;20506;-72
2023/12/18 00:17:32;;;;;;;6.80;6.40;;;3.30;99.90;;;;;;4954750;28;20034;-72
2023/12/18 00:19:59;;;;;;;7.22;6.82;;;3.40;99.90;;;;;;4967203;28;20027;-72
2023/12/18 00:22:24;;;;;;;6.82;6.45;;;3.40;99.90;;;;;;4968474;28;20034;-72
2023/12/18 00:24:50;;;;;;;7.57;7.07;;;3.40;99.90;;;;;;4967141;28;20031;-72
2023/12/18 00:27:15;;;;;;;6.78;6.13;;;3.50;99.90;;;;;;4969469;28;20031;-72
2023/12/18 00:29:41;;;;;;;8.25;7.55;;;3.50;99.90;;;;;;4965983;28;20030;-72
2023/12/18 00:32:07;;;;;;;6.57;6.28;;;3.40;99.90;;;;;;4968355;28;20030;-72
2023/12/18 00:34:33;;;;;;;6.05;5.63;;;3.50;99.90;;;;;;4953682;29;20391;-72
2023/12/18 00:36:58;;;;;;;8.25;6.00;;;3.50;99.90;;;;;;4966072;28;20028;-72
2023/12/18 00:39:24;;;;;;;7.97;5.88;;;3.60;99.90;;;;;;4968514;28;20018;-72
2023/12/18 00:41:51;;;;;;;6.03;5.72;;;3.70;99.90;;;;;;4967578;28;20069;-72
2023/12/18 00:44:17;;;;;;;6.97;6.50;;;3.70;99.90;;;;;;4949349;28;20060;-72
2023/12/18 00:46:43;;;;;;;5.78;5.45;;;3.60;99.90;;;;;;4966732;28;20359;-72
2023/12/18 00:49:09;;;;;;;4.97;4.75;;;3.60;99.90;;;;;;4945917;28;20110;-72
2023/12/18 00:51:35;;;;;;;4.80;4.28;;;3.60;99.90;;;;;;4965814;28;20564;-72
2023/12/18 00:54:00;;;;;;;4.78;4.47;;;3.70;99.90;;;;;;4953533;28;20070;-72
2023/12/18 00:56:26;;;;;;;5.53;5.13;;;3.70;99.90;;;;;;4956879;28;20373;-72
2023/12/18 00:58:52;;;;;;;5.13;4.85;;;3.60;99.90;;;;;;4955585;28;20019;-72
2023/12/18 01:01:17;;;;;;;4.93;4.53;;;3.60;99.90;;;;;;4954388;28;20536;-71
2023/12/18 01:03:43;;;;;;;4.47;4.25;;;3.70;99.90;;;;;;4969342;28;20031;-72
2023/12/18 01:06:08;;;;;;;5.00;4.70;;;3.80;99.90;;;;;;4963718;28;20027;-72
2023/12/18 01:08:34;;;;;;;4.40;4.20;;;3.80;99.90;;;;;;4969617;28;20038;-72
2023/12/18 01:11:00;;;;;;;4.75;4.55;;;3.70;99.90;;;;;;4964954;28;20031;-72
2023/12/18 01:13:26;;;;;;;5.05;4.85;;;3.70;99.90;;;;;;4956028;28;20023;-73
2023/12/18 01:15:51;;;;;;;4.03;3.80;;;3.60;99.90;;;;;;4964837;28;20018;-72
2023/12/18 01:18:17;;;;;;;4.32;4.13;;;3.60;99.90;;;;;;4953170;28;20109;-72
2023/12/18 01:20:43;;;;;;;4.40;4.13;;;3.60;99.90;;;;;;4964533;28;20053;-71
2023/12/18 01:23:08;;;;;;;4.78;4.57;;;3.40;99.90;;;;;;4970568;28;20045;-72
2023/12/18 01:25:34;;;;;;;3.58;3.38;;;3.40;99.90;;;;;;4944835;29;20035;-72
2023/12/18 01:28:00;;;;;;;4.45;4.25;;;3.40;99.90;;;;;;4952878;28;20045;-72
2023/12/18 01:30:26;;;;;;;3.78;3.55;;;3.50;99.90;;;;;;4964801;28;20031;-71
2023/12/18 01:32:52;;;;;;;4.30;4.10;;;3.50;99.90;;;;;;4950896;28;20031;-71
2023/12/18 01:35:17;;;;;;;3.92;3.72;;;3.60;99.90;;;;;;4954036;28;20052;-72
2023/12/18 01:37:43;;;;;;;4.60;4.40;;;3.70;99.90;;;;;;4965735;28;20183;-72
2023/12/18 01:40:09;;;;;;;4.68;4.47;;;3.60;99.90;;;;;;4965114;28;20394;-72
2023/12/18 01:42:35;;;;;;;4.68;4.38;;;3.60;99.90;;;;;;4956144;28;20031;-71
2023/12/18 01:45:01;;;;;;;4.63;4.43;;;3.60;99.90;;;;;;4944536;29;20035;-72
2023/12/18 01:47:26;;;;;;;4.35;4.15;;;3.70;99.90;;;;;;4966653;28;20506;-72
2023/12/18 01:49:52;;;;;;;4.55;4.35;;;3.70;99.90;;;;;;4953381;28;20129;-71
2023/12/18 01:52:18;;;;;;;4.60;4.38;;;3.70;99.90;;;;;;4966455;28;20113;-72
2023/12/18 01:54:45;;;;;;;4.82;4.53;;;3.60;99.90;;;;;;4965757;28;20023;-72
2023/12/18 01:57:15;;;;;;;5.10;4.80;;;3.50;99.90;;;;;;4967353;28;20031;-72
2023/12/18 01:59:41;;;;;;;5.97;5.57;;;3.40;99.90;;;;;;4964030;28;20022;-72
2023/12/18 02:02:07;;;;;;;6.68;5.03;;;3.40;99.90;;;;;;4945205;28;20505;-72
2023/12/18 02:04:33;;;;;;;5.18;4.95;;;3.40;99.90;;;;;;4947335;28;20031;-72
2023/12/18 02:07:01;;;;;;;4.97;4.30;;;3.30;99.90;;;;;;4965191;28;20050;-72
2023/12/18 02:09:27;;;;;;;5.70;5.30;;;3.40;99.90;;;;;;4966883;28;20038;-72
2023/12/18 02:11:53;;;;;;;6.50;6.10;;;3.40;99.90;;;;;;4957383;28;20041;-72
2023/12/18 02:14:19;;;;;;;6.80;6.35;;;3.30;99.90;;;;;;4966534;28;20106;-72
2023/12/18 02:16:44;;;;;;;6.28;5.88;;;3.30;99.90;;;;;;4966601;28;20026;-72
2023/12/18 02:19:27;;;;;;;5.93;5.60;;;3.30;99.90;;;;;;4964714;28;20448;-72
2023/12/18 02:21:57;;;;;;;5.50;4.78;;;3.30;99.90;;;;;;4965393;28;20041;-73
2023/12/18 02:24:23;;;;;;;6.07;5.68;;;3.30;99.90;;;;;;4948598;28;20053;-72
2023/12/18 02:26:49;;;;;;;5.32;5.03;;;3.30;99.90;;;;;;4952394;28;20038;-71
2023/12/18 02:29:15;;;;;;;6.90;6.40;;;3.40;99.90;;;;;;4949421;28;20035;-72
2023/12/18 02:31:42;;;;;;;6.45;5.95;;;3.40;99.90;;;;;;4968467;28;20073;-71
2023/12/18 02:34:08;;;;;;;4.90;4.50;;;3.50;99.90;;;;;;4967143;28;20055;-72
2023/12/18 02:36:34;;;;;;;5.32;4.93;;;3.40;99.90;;;;;;4962852;28;20033;-72
2023/12/18 02:38:59;;;;;;;5.57;5.10;;;3.30;99.90;;;;;;4968338;28;20363;-72
2023/12/18 02:41:25;;;;;;;5.38;5.07;;;3.50;99.90;;;;;;4965178;28;20023;-72
2023/12/18 02:43:51;;;;;;;4.97;4.68;;;3.50;99.90;;;;;;4968278;28;20540;-72
2023/12/18 02:46:16;;;;;;;5.03;4.68;;;3.50;99.90;;;;;;4964350;28;20061;-71
2023/12/18 02:48:42;;;;;;;4.82;4.50;;;3.30;99.90;;;;;;4966864;28;20070;-72
2023/12/18 02:51:08;;;;;;;5.07;4.88;;;3.30;99.90;;;;;;4962293;28;20035;-72
2023/12/18 02:53:33;;;;;;;4.68;4.38;;;3.30;99.90;;;;;;4968296;28;20505;-72
2023/12/18 02:55:59;;;;;;;5.45;5.22;;;3.20;99.90;;;;;;4946940;28;20038;-72
2023/12/18 02:58:25;;;;;;;5.18;4.97;;;3.20;99.90;;;;;;4968393;28;20027;-72
2023/12/18 03:00:50;;;;;;;4.13;3.92;;;3.10;99.90;;;;;;4954227;28;20035;-72
2023/12/18 03:03:16;;;;;;;4.32;4.13;;;3.10;99.90;;;;;;4968073;28;20031;-71
2023/12/18 03:05:42;;;;;;;4.13;3.92;;;3.10;99.90;;;;;;4952569;28;20031;-71
2023/12/18 03:08:08;;;;;;;5.20;5.00;;;3.20;99.90;;;;;;4964965;28;20183;-72
2023/12/18 03:10:33;;;;;;;4.57;4.32;;;3.30;99.90;;;;;;4967773;28;20085;-71
2023/12/18 03:12:59;;;;;;;4.55;4.35;;;3.30;99.90;;;;;;4968585;28;22032;-72
2023/12/18 03:15:26;;;;;;;5.13;4.82;;;3.30;99.90;;;;;;4966132;28;20027;-72
2023/12/18 03:17:51;;;;;;;5.25;4.85;;;3.30;99.90;;;;;;4972429;28;20014;-72
2023/12/18 03:20:17;;;;;;;4.90;4.60;;;3.30;99.90;;;;;;4968962;28;20035;-72
2023/12/18 03:22:43;;;;;;;4.97;4.75;;;3.30;99.90;;;;;;4967747;28;20059;-72
2023/12/18 03:25:08;;;;;;;5.55;5.25;;;3.30;99.90;;;;;;4965630;28;20031;-72
2023/12/18 03:27:34;;;;;;;4.43;4.22;;;3.40;99.90;;;;;;4953321;28;20093;-71
2023/12/18 03:30:00;;;;;;;5.05;4.85;;;3.40;99.90;;;;;;4968083;28;20026;-72
2023/12/18 03:32:26;;;;;;;4.03;3.83;;;3.40;99.90;;;;;;4967921;28;20365;-71
2023/12/18 03:34:51;;;;;;;5.72;5.30;;;3.30;99.90;;;;;;4970359;28;20528;-72
2023/12/18 03:37:17;;;;;;;5.32;4.82;;;3.20;99.90;;;;;;4972010;28;20035;-71
2023/12/18 03:39:43;;;;;;;4.90;4.60;;;3.10;99.90;;;;;;4977586;28;20051;-72
2023/12/18 03:42:08;;;;;;;5.30;5.10;;;3.10;99.90;;;;;;4957853;28;20326;-72
2023/12/18 03:44:34;;;;;;;4.35;4.15;;;3.10;99.90;;;;;;4967229;28;20031;-72
2023/12/18 03:46:59;;;;;;;5.18;4.88;;;3.10;99.90;;;;;;4970855;28;20081;-72
2023/12/18 03:49:25;;;;;;;4.78;4.57;;;3.10;99.90;;;;;;4967218;28;20031;-71
2023/12/18 03:51:52;;;;;;;4.82;4.63;;;3.10;99.90;;;;;;4970411;28;20030;-72
2023/12/18 03:54:18;;;;;;;5.35;5.15;;;3.10;99.90;;;;;;4971562;28;20027;-72
2023/12/18 03:56:43;;;;;;;5.32;5.13;;;3.10;99.90;;;;;;4959598;28;20058;-71
2023/12/18 03:59:09;;;;;;;4.57;4.28;;;3.20;99.90;;;;;;4951202;28;20026;-72
2023/12/18 04:01:36;;;;;;;5.05;4.63;;;3.20;99.90;;;;;;4970054;28;20049;-72
2023/12/18 04:04:02;;;;;;;5.15;4.68;;;3.20;99.90;;;;;;4980401;28;20026;-72
2023/12/18 04:06:28;;;;;;;4.65;4.38;;;3.10;99.90;;;;;;4953708;28;20035;-72
2023/12/18 04:08:54;;;;;;;4.60;4.38;;;3.10;99.90;;;;;;4974269;28;20532;-72
2023/12/18 04:11:21;;;;;;;4.75;4.55;;;3.10;99.90;;;;;;4966620;28;20054;-71
2023/12/18 04:13:48;;;;;;;5.50;5.13;;;3.10;99.90;;;;;;4973924;28;20178;-72
2023/12/18 04:16:14;;;;;;;4.43;4.22;;;3.00;99.90;;;;;;4957019;28;20029;-72
2023/12/18 04:18:40;;;;;;;4.45;4.15;;;2.90;99.90;;;;;;4955701;28;20074;-72
2023/12/18 04:21:05;;;;;;;5.50;5.20;;;3.00;99.90;;;;;;4966358;28;20429;-72
2023/12/18 04:23:31;;;;;;;4.47;4.18;;;3.00;99.90;;;;;;4972982;28;20417;-72
2023/12/18 04:25:57;;;;;;;5.93;5.50;;;3.10;99.90;;;;;;4965968;28;20023;-72
2023/12/18 04:28:22;;;;;;;5.20;4.90;;;3.00;99.90;;;;;;4967166;28;20058;-71
2023/12/18 04:30:48;;;;;;;6.93;5.22;;;3.00;99.90;;;;;;4967039;28;20031;-72
2023/12/18 04:33:14;;;;;;;4.95;4.65;;;2.80;99.90;;;;;;4971511;28;20023;-72
2023/12/18 04:35:40;;;;;;;5.68;5.18;;;2.80;99.90;;;;;;4964741;28;20100;-72
2023/12/18 04:38:06;;;;;;;5.65;5.35;;;2.70;99.90;;;;;;4979474;28;20027;-71
2023/12/18 04:40:32;;;;;;;4.95;4.53;;;2.70;99.90;;;;;;4966812;28;20026;-72
2023/12/18 04:42:57;;;;;;;5.28;4.97;;;2.60;99.90;;;;;;4970665;28;20117;-72
2023/12/18 04:45:23;;;;;;;4.82;4.40;;;2.70;99.90;;;;;;4965836;28;20401;-72
2023/12/18 04:47:49;;;;;;;5.03;4.72;;;2.80;99.90;;;;;;4959236;28;20054;-72
2023/12/18 04:50:15;;;;;;;5.07;4.82;;;2.90;99.90;;;;;;4967746;28;20037;-71
2023/12/18 04:52:41;;;;;;;5.15;4.95;;;3.00;99.90;;;;;;4972154;28;20389;-72
2023/12/18 04:55:07;;;;;;;4.85;4.47;;;2.90;99.90;;;;;;4964305;28;20058;-72
2023/12/18 04:57:34;;;;;;;4.43;4.22;;;2.90;99.90;;;;;;4967128;28;20043;-71
2023/12/18 05:00:00;;;;;;;5.55;5.15;;;2.90;99.90;;;;;;4968006;28;20191;-72
2023/12/18 05:02:26;;;;;;;4.33;4.03;;;3.00;99.90;;;;;;4975046;28;20390;-72
2023/12/18 05:04:51;;;;;;;4.03;3.72;;;3.10;99.90;;;;;;4956555;28;20030;-71
2023/12/18 05:07:17;;;;;;;5.17;4.87;;;3.10;99.90;;;;;;4965164;28;20033;-72
2023/12/18 05:09:43;;;;;;;5.80;5.50;;;3.10;99.90;;;;;;4969821;28;20541;-72
2023/12/18 05:12:08;;;;;;;4.80;4.60;;;3.00;99.90;;;;;;4968405;28;20027;-74
2023/12/18 05:14:34;;;;;;;6.00;5.65;;;3.00;99.90;;;;;;4976492;28;20026;-74
2023/12/18 05:17:00;;;;;;;4.93;4.72;;;3.00;99.90;;;;;;4969647;28;20034;-72
2023/12/18 05:19:25;;;;;;;5.35;4.97;;;3.10;99.90;;;;;;4974038;28;20059;-72
2023/12/18 05:21:51;;;;;;;6.38;5.97;;;3.00;99.90;;;;;;4968760;28;20389;-72
2023/12/18 05:24:16;;;;;;;5.47;5.05;;;2.90;99.90;;;;;;4968962;28;20085;-72
2023/12/18 05:26:42;;;;;;;4.70;3.75;;;3.00;99.90;;;;;;4967665;28;20041;-71
2023/12/18 05:29:08;;;;;;;4.50;4.30;;;3.10;99.90;;;;;;4969128;28;20045;-72
2023/12/18 05:31:33;;;;;;;4.70;4.47;;;3.20;99.90;;;;;;4963046;28;20493;-72
2023/12/18 05:33:59;;;;;;;4.10;3.92;;;3.20;99.90;;;;;;4965188;28;20398;-72
2023/12/18 05:36:25;;;;;;;6.30;4.03;;;3.30;99.90;;;;;;4968352;28;20026;-72
2023/12/18 05:38:51;;;;;;;6.55;4.38;;;3.30;99.90;;;;;;4950329;28;20026;-72
2023/12/18 05:41:17;;;;;;;4.30;3.95;;;3.10;99.90;;;;;;4964704;28;20049;-72
2023/12/18 05:43:42;;;;;;;4.10;3.72;;;2.90;99.90;;;;;;4969177;28;20114;-72
2023/12/18 05:46:13;;;;;;;5.60;5.20;;;3.00;99.90;;;;;;4964390;28;20023;-72
2023/12/18 05:48:38;;;;;;;4.30;4.10;;;3.00;99.90;;;;;;4970438;28;20074;-72
2023/12/18 05:51:04;;;;;;;4.65;4.32;;;3.00;99.90;;;;;;4964120;28;20029;-72
2023/12/18 05:53:30;;;;;;;5.25;4.95;;;3.00;99.90;;;;;;4976699;28;20556;-72
2023/12/18 05:55:56;;;;;;;5.10;4.70;;;3.00;99.90;;;;;;4964436;28;20031;-72
2023/12/18 05:58:21;;;;;;;10.50;5.10;;;3.00;99.90;;;;;;4972839;28;20094;-72
2023/12/18 06:00:47;;;;;;;4.90;4.60;;;3.10;99.90;;;;;;4947820;28;20129;-72
2023/12/18 06:03:13;;;;;;;4.78;4.53;;;3.10;99.90;;;;;;4969020;28;20027;-72
2023/12/18 06:05:38;;;;;;;5.68;5.18;;;3.00;99.90;;;;;;4964502;28;20082;-72
2023/12/18 06:08:04;;;;;;;5.40;5.00;;;3.00;99.90;;;;;;4972817;28;20030;-72
2023/12/18 06:10:30;;;;;;;5.40;4.97;;;3.00;99.90;;;;;;4971367;28;20390;-72
2023/12/18 06:12:56;;;;;;;5.33;4.87;;;3.00;99.90;;;;;;4955684;28;20070;-73
2023/12/18 06:15:21;;;;;;;4.93;4.63;;;2.90;99.90;;;;;;4955091;28;20054;-72
2023/12/18 06:17:47;;;;;;;5.53;5.00;;;3.00;99.90;;;;;;4958545;28;20037;-72
2023/12/18 06:20:13;;;;;;;5.40;5.03;;;3.00;99.90;;;;;;4971340;28;20019;-72
2023/12/18 06:22:38;;;;;;;4.35;3.83;;;3.10;99.90;;;;;;4969712;28;20031;-72
2023/12/18 06:25:05;;;;;;;7.13;4.65;;;3.20;99.90;;;;;;4965311;28;20035;-72
2023/12/18 06:27:30;;;;;;;4.80;4.38;;;3.20;99.90;;;;;;4971613;28;20448;-72
2023/12/18 06:29:56;;;;;;;4.88;4.32;;;3.10;99.90;;;;;;4962208;28;20034;-72
2023/12/18 06:32:22;;;;;;;4.53;4.32;;;3.00;99.90;;;;;;4970608;28;20062;-72
2023/12/18 06:34:47;;;;;;;3.60;3.50;;;3.00;99.90;;;;;;4968899;28;20058;-72
2023/12/18 06:37:13;;;;;;;4.47;4.18;;;2.90;99.90;;;;;;4967161;28;20027;-74
2023/12/18 06:39:39;;;;;;;5.93;5.45;;;3.00;99.90;;;;;;4962556;28;20443;-75
2023/12/18 06:42:04;;;;;;;4.22;4.03;;;3.00;99.90;;;;;;4966114;28;20046;-74
2023/12/18 06:44:30;;;;;;;5.03;4.63;;;3.00;99.90;;;;;;4966394;28;20038;-71
2023/12/18 06:46:56;;;;;;;4.88;4.68;;;3.00;99.90;;;;;;4970422;28;20042;-74
2023/12/18 06:49:21;;;;;;;8.35;6.88;;;2.90;99.90;;;;;;4945754;28;20391;-71
2023/12/18 06:51:49;;;;;;;6.22;5.22;;;3.00;99.90;;;;;;4969831;28;20489;-72
2023/12/18 06:54:16;;;;;;;5.35;5.05;;;3.10;99.90;;;;;;4966864;28;20043;-72
2023/12/18 06:56:41;;;;;;;5.43;4.93;;;3.20;99.90;;;;;;4953495;28;20030;-72
2023/12/18 06:59:07;;;;;;;4.90;4.55;;;3.00;99.90;;;;;;4971192;28;20019;-72
2023/12/18 07:01:33;;;;;;;5.77;5.47;;;3.00;99.90;;;;;;4969255;28;20363;-72
2023/12/18 07:03:59;;;;;;;5.57;5.20;;;2.90;99.90;;;;;;4967932;28;20061;-72
2023/12/18 07:06:25;;;;;;;5.32;4.93;;;2.80;99.90;;;;;;4969860;28;20023;-72
2023/12/18 07:08:50;;;;;;;6.53;5.93;;;2.80;99.90;;;;;;4970929;28;20557;-72
2023/12/18 07:11:16;;;;;;;8.47;6.33;;;2.80;99.90;;;;;;4966020;28;20028;-72
2023/12/18 07:13:42;;;;;;;7.93;6.88;;;2.80;99.90;;;;;;4979914;28;20393;-72
2023/12/18 07:16:08;;;;;;;7.05;6.45;;;2.90;99.90;;;;;;4964527;28;20089;-72
2023/12/18 07:18:33;;;;;;;9.10;6.38;;;2.90;99.90;;;;;;4956940;28;20051;-72
2023/12/18 07:20:59;;;;;;;7.63;6.43;;;2.90;99.90;;;;;;4968509;28;20036;-72
2023/12/18 07:23:25;;;;;;;7.05;6.45;;;3.00;99.90;;;;;;4964493;28;20454;-72
2023/12/18 07:25:51;;;;;;;12.20;6.70;;;3.00;99.90;;;;;;4949928;28;20477;-72
2023/12/18 07:28:17;;;;;;;6.45;5.93;;;3.10;99.90;;;;;;4966464;28;20371;-73
2023/12/18 07:30:43;;;;;;;7.68;6.45;;;3.10;99.90;;;;;;4955224;29;20528;-72
2023/12/18 07:33:08;;;;;;;8.02;7.43;;;3.20;99.90;;;;;;4977407;28;20074;-72
2023/12/18 07:35:34;;;;;;;6.35;5.95;;;3.20;99.90;;;;;;4966038;28;20135;-72
2023/12/18 07:38:00;;;;;;;6.65;6.13;;;3.20;99.90;;;;;;4967523;28;20030;-72
2023/12/18 07:40:25;;;;;;;14.05;6.10;;;3.20;99.90;;;;;;4971027;28;20054;-72
2023/12/18 07:42:51;;;;;;;5.93;5.43;;;3.20;99.90;;;;;;4969820;28;20035;-73
2023/12/18 07:45:18;;;;;;;12.68;8.40;;;3.20;99.90;;;;;;4967363;28;20069;-74
2023/12/18 07:47:44;;;;;;;8.10;7.18;;;3.20;99.90;;;;;;4969919;28;20405;-74
2023/12/18 07:50:10;;;;;;;12.45;8.00;;;3.30;99.90;;;;;;4963844;28;20027;-74
2023/12/18 07:52:35;;;;;;;14.98;10.75;;;3.30;99.90;;;;;;4956238;28;20571;-74
2023/12/18 07:55:02;;;;;;;12.85;11.57;;;3.30;99.90;;;;;;4966818;28;20026;-74
2023/12/18 07:57:28;;;;;;;19.42;16.05;;;3.40;99.90;;;;;;4970938;28;20532;-75
2023/12/18 07:59:54;;;;;;;24.77;19.70;;;3.40;99.90;;;;;;4968269;28;20118;-72
2023/12/18 08:02:20;;;;;;;38.35;29.25;;;3.50;99.90;;;;;;4966709;28;20025;-72
2023/12/18 08:04:46;;;;;;;16.30;14.45;;;3.60;99.90;;;;;;4968621;28;20117;-73
2023/12/18 08:07:12;;;;;;;11.40;10.18;;;3.60;99.90;;;;;;4975011;28;20027;-72
2023/12/18 08:09:38;;;;;;;10.80;9.10;;;3.70;99.90;;;;;;4971112;28;20031;-72
2023/12/18 08:12:04;;;;;;;10.07;7.13;;;3.80;99.90;;;;;;4966789;28;20030;-72
2023/12/18 08:14:30;;;;;;;8.02;7.40;;;3.90;99.90;;;;;;4965035;28;20118;-72
2023/12/18 08:16:55;;;;;;;6.95;6.07;;;3.90;99.90;;;;;;4953094;28;20110;-72
2023/12/18 08:19:21;;;;;;;5.50;5.10;;;4.00;99.90;;;;;;4965751;28;20477;-72
2023/12/18 08:21:47;;;;;;;8.80;7.55;;;4.00;99.90;;;;;;4966944;28;20027;-72
2023/12/18 08:24:12;;;;;;;8.60;6.97;;;4.10;99.90;;;;;;4966818;28;20489;-72
2023/12/18 08:26:38;;;;;;;14.00;7.10;;;4.20;99.90;;;;;;4951201;28;20118;-72
2023/12/18 08:29:04;;;;;;;14.55;11.35;;;4.30;99.90;;;;;;4966433;28;20035;-73
2023/12/18 08:31:30;;;;;;;11.00;9.95;;;4.40;99.90;;;;;;4967810;28;20029;-72
2023/12/18 08:33:56;;;;;;;10.15;9.15;;;4.40;99.90;;;;;;4966833;28;20043;-73
2023/12/18 08:36:22;;;;;;;9.70;8.20;;;4.40;99.90;;;;;;4969164;28;20022;-72
2023/12/18 08:38:47;;;;;;;10.63;8.10;;;4.50;99.90;;;;;;4969584;28;20038;-72
2023/12/18 08:41:13;;;;;;;12.15;10.77;;;4.50;99.90;;;;;;4956330;28;20039;-72
2023/12/18 08:43:39;;;;;;;18.35;9.52;;;4.60;99.90;;;;;;4964661;28;20106;-72
2023/12/18 08:46:05;;;;;;;14.82;8.75;;;4.60;99.90;;;;;;4965267;28;20546;-73
2023/12/18 08:48:31;;;;;;;12.82;8.75;;;4.60;99.90;;;;;;4967821;28;20019;-72
2023/12/18 08:50:57;;;;;;;8.75;7.80;;;4.70;99.90;;;;;;4964934;28;20031;-73
2023/12/18 08:53:22;;;;;;;45.08;22.35;;;4.70;99.90;;;;;;4970436;28;20033;-72
2023/12/18 08:55:48;;;;;;;62.20;32.85;;;4.80;99.90;;;;;;4965840;28;20465;-72
2023/12/18 08:58:14;;;;;;;46.22;25.05;;;4.80;99.90;;;;;;4968024;28;20485;-72
2023/12/18 09:00:40;;;;;;;58.97;28.52;;;4.90;99.90;;;;;;4949454;28;20393;-72
2023/12/18 09:03:05;;;;;;;39.42;21.98;;;4.90;99.90;;;;;;4955239;28;20031;-72
2023/12/18 09:05:31;;;;;;;36.13;21.05;;;5.10;99.90;;;;;;4965110;28;20025;-72
2023/12/18 09:07:57;;;;;;;26.92;16.70;;;5.10;99.90;;;;;;4970362;28;20421;-73
2023/12/18 09:10:23;;;;;;;34.28;20.45;;;5.10;99.90;;;;;;4971227;28;20026;-72
2023/12/18 09:12:51;;;;;;;50.63;26.05;;;5.20;99.90;;;;;;4967456;28;20031;-72
2023/12/18 09:15:18;;;;;;;50.75;25.20;;;5.30;99.90;;;;;;4964502;28;20031;-72
2023/12/18 09:17:43;;;;;;;43.05;21.92;;;5.30;99.90;;;;;;4966999;28;20019;-72
2023/12/18 09:20:09;;;;;;;38.47;19.73;;;5.30;99.90;;;;;;4962540;28;20074;-73
2023/12/18 09:22:36;;;;;;;24.08;12.43;;;5.40;99.90;;;;;;4967805;28;20031;-72
2023/12/18 09:25:02;;;;;;;19.23;11.48;;;5.40;99.90;;;;;;4962428;28;20035;-72
2023/12/18 09:27:28;;;;;;;18.05;11.68;;;5.50;99.90;;;;;;4969899;28;20077;-72
2023/12/18 09:29:54;;;;;;;22.13;14.48;;;5.50;99.90;;;;;;4965574;28;20114;-72
2023/12/18 09:32:20;;;;;;;21.40;14.63;;;5.60;99.90;;;;;;4963891;28;20497;-72
2023/12/18 09:34:46;;;;;;;20.95;15.00;;;5.70;99.90;;;;;;4966138;28;20043;-73
2023/12/18 09:37:12;;;;;;;19.42;15.68;;;5.70;99.90;;;;;;4967423;28;20042;-72
2023/12/18 09:39:41;;;;;;;21.23;16.65;;;5.80;99.90;;;;;;4965898;28;20037;-72
2023/12/18 09:42:10;;;;;;;18.70;16.25;;;5.90;99.90;;;;;;4967440;28;20109;-72
2023/12/18 09:44:36;;;;;;;17.55;14.73;;;5.90;99.90;;;;;;4962218;28;20035;-72
2023/12/18 09:47:02;;;;;;;18.27;14.15;;;6.00;99.90;;;;;;4968330;28;20035;-72
2023/12/18 09:49:28;;;;;;;19.67;12.00;;;6.00;99.90;;;;;;4965313;28;20042;-73
2023/12/18 09:51:56;;;;;;;20.45;11.90;;;6.10;99.90;;;;;;4966624;28;20558;-72
2023/12/18 09:54:23;;;;;;;26.98;13.88;;;6.10;99.90;;;;;;4966240;28;20030;-72
2023/12/18 09:56:50;;;;;;;21.38;14.07;;;6.10;99.90;;;;;;4949896;28;20122;-72
2023/12/18 09:59:18;;;;;;;20.92;15.45;;;6.10;99.90;;;;;;4964006;28;20019;-72
2023/12/18 10:01:45;;;;;;;22.50;15.27;;;6.20;98.30;;;;;;4949114;28;20034;-72
2023/12/18 10:04:11;;;;;;;25.10;14.77;;;6.20;96.40;;;;;;4964911;28;20027;-72
2023/12/18 10:06:37;;;;;;;24.45;14.93;;;6.20;99.90;;;;;;4964887;28;20054;-73
2023/12/18 10:09:09;;;;;;;20.00;14.27;;;6.30;99.90;;;;;;4964729;28;20089;-72
2023/12/18 10:11:34;;;;;;;22.05;13.93;;;6.30;99.90;;;;;;4964762;28;20045;-73
2023/12/18 10:14:00;;;;;;;21.05;12.65;;;6.40;99.90;;;;;;4966708;28;20383;-72
2023/12/18 10:16:26;;;;;;;18.73;12.60;;;6.50;99.90;;;;;;4965181;28;20026;-72
2023/12/18 10:18:53;;;;;;;16.08;11.85;;;6.60;99.90;;;;;;4967036;28;20027;-72
2023/12/18 10:21:25;;;;;;;13.05;11.68;;;6.80;90.60;;;;;;4964299;28;20029;-72
2023/12/18 10:23:54;;;;;;;15.93;12.55;;;6.90;86.30;;;;;;4955968;28;20089;-73
2023/12/18 10:26:21;;;;;;;13.95;11.40;;;7.00;88.10;;;;;;4951424;28;20058;-72
2023/12/18 10:28:52;;;;;;;13.98;11.32;;;7.00;69.90;;;;;;4967993;28;20031;-73
2023/12/18 10:31:19;;;;;;;12.88;9.95;;;7.10;56.10;;;;;;4968157;28;20031;-72
2023/12/18 10:33:45;;;;;;;13.57;9.80;;;7.20;26.50;;;;;;4968626;28;20089;-73
2023/12/18 10:36:11;;;;;;;11.18;9.50;;;7.30;1.00;;;;;;4950310;28;20030;-73
2023/12/18 10:38:40;;;;;;;14.45;10.15;;;7.30;22.50;;;;;;4972463;28;20061;-73
2023/12/18 10:41:09;;;;;;;12.85;9.20;;;7.30;7.50;;;;;;4971892;28;20037;-73
2023/12/18 10:43:36;;;;;;;12.98;8.98;;;7.30;25.40;;;;;;4972796;28;20393;-72
2023/12/18 10:46:05;;;;;;;13.32;9.15;;;7.40;16.40;;;;;;4965896;28;20027;-72
2023/12/18 10:48:32;;;;;;;10.07;8.75;;;7.40;1.00;;;;;;4969764;28;20565;-72
2023/12/18 10:50:59;;;;;;;15.70;10.38;;;7.40;20.90;;;;;;4948160;28;20030;-72
2023/12/18 10:53:25;;;;;;;18.45;10.00;;;7.40;26.60;;;;;;4958474;28;20055;-72
2023/12/18 10:55:53;;;;;;;17.33;10.30;;;7.40;26.30;;;;;;4949008;28;20393;-72
2023/12/18 10:58:19;;;;;;;13.23;10.25;;;7.40;28.70;;;;;;4970057;28;20489;-72
2023/12/18 11:00:46;;;;;;;14.43;10.10;;;7.40;30.70;;;;;;4967121;28;20106;-72
2023/12/18 11:03:13;;;;;;;13.57;9.30;;;7.50;30.00;;;;;;4956439;28;20397;-72
2023/12/18 11:05:40;;;;;;;12.85;9.05;;;7.50;21.70;;;;;;4950766;28;20605;-72
2023/12/18 11:08:06;;;;;;;12.27;9.00;;;7.60;1.00;;;;;;4971780;28;20466;-72
2023/12/18 11:10:32;;;;;;;14.13;9.50;;;7.70;1.00;;;;;;4970706;28;20031;-72
2023/12/18 11:13:21;;;;;;;11.52;8.55;;;7.70;1.00;;;;;;4966790;28;20038;-72
2023/12/18 11:15:58;;;;;;;11.85;8.70;;;7.80;1.00;;;;;;4921491;28;20039;-72
2023/12/18 11:18:44;;;;;;;13.55;8.30;;;7.90;1.00;;;;;;4968134;28;20161;-72
2023/12/18 11:21:09;;;;;;;10.20;7.32;;;8.00;99.90;;;;;;4970643;28;20094;-72
2023/12/18 11:23:39;;;;;;;8.27;7.47;;;8.20;1.00;;;;;;4955183;28;20169;-72
2023/12/18 11:26:12;;;;;;;8.77;6.93;;;8.20;1.00;;;;;;4947750;28;20563;-72
2023/12/18 11:28:38;;;;;;;9.52;7.43;;;8.20;1.00;;;;;;4968153;28;20022;-73
2023/12/18 11:31:06;;;;;;;10.07;6.75;;;8.30;1.00;;;;;;4964790;28;20016;-72
2023/12/18 11:33:32;;;;;;;14.57;8.00;;;8.30;1.00;;;;;;4966625;28;20540;-72
2023/12/18 11:35:58;;;;;;;14.45;8.70;;;8.40;1.00;;;;;;4947437;28;20386;-72
2023/12/18 11:38:24;;;;;;;14.48;7.82;;;8.40;1.00;;;;;;4971267;28;20023;-72
2023/12/18 11:40:55;;;;;;;12.15;8.50;;;8.60;1.00;;;;;;4969289;28;20506;-72
2023/12/18 11:43:41;;;;;;;11.80;7.53;;;8.80;1.00;;;;;;4954966;28;20031;-72
2023/12/18 11:46:09;;;;;;;12.38;7.40;;;8.90;99.90;;;;;;4965088;28;20386;-72
2023/12/18 11:48:35;;;;;;;12.07;8.05;;;9.00;99.90;;;;;;4950377;28;20031;-71
2023/12/18 11:51:02;;;;;;;15.00;8.32;;;9.10;99.90;;;;;;4955133;28;20486;-72
2023/12/18 11:53:35;;;;;;;14.65;7.30;;;9.10;99.90;;;;;;4961691;28;20019;-72
2023/12/18 11:56:08;;;;;;;9.40;6.75;;;9.10;1.00;;;;;;4963898;28;20212;-72
2023/12/18 11:58:36;;;;;;;14.10;7.18;;;9.20;99.90;;;;;;4971145;28;20409;-72
2023/12/18 12:01:02;;;;;;;15.88;7.25;;;9.30;99.90;;;;;;4950740;28;20441;-72
2023/12/18 12:03:30;;;;;;;23.25;7.90;;;9.30;99.90;;;;;;4972810;28;20027;-72
2023/12/18 12:05:58;;;;;;;19.67;8.32;;;9.30;99.90;;;;;;4968441;28;20485;-72
2023/12/18 12:08:23;;;;;;;23.63;7.45;;;9.30;99.90;;;;;;4957614;28;20035;-72
2023/12/18 12:10:50;;;;;;;23.33;7.65;;;9.40;99.90;;;;;;4949676;28;20093;-72
2023/12/18 12:13:27;;;;;;;12.55;9.55;;;9.50;99.90;;;;;;4972032;28;20101;-72
2023/12/18 12:15:57;;;;;;;13.70;7.70;;;9.70;1.00;;;;;;4964249;28;20038;-72
2023/12/18 12:18:28;;;;;;;10.70;7.10;;;9.70;99.90;;;;;;4954036;28;20034;-72
2023/12/18 12:20:54;;;;;;;12.70;7.43;;;9.70;99.90;;;;;;4966318;28;20037;-72
2023/12/18 12:23:21;;;;;;;8.55;6.43;;;9.80;99.90;;;;;;4970025;28;20031;-72
2023/12/18 12:25:48;;;;;;;13.27;6.65;;;9.80;99.90;;;;;;4966805;28;20031;-72
2023/12/18 12:28:18;;;;;;;11.52;6.65;;;9.80;45.60;;;;;;4970099;28;20489;-72
2023/12/18 12:30:44;;;;;;;7.10;5.93;;;9.90;1.00;;;;;;4966577;28;20195;-72
2023/12/18 12:33:10;;;;;;;13.13;5.68;;;9.90;1.00;;;;;;4969961;28;20031;-72
2023/12/18 12:35:36;;;;;;;10.63;6.03;;;9.80;1.00;;;;;;4966669;28;20035;-72
2023/12/18 12:38:03;;;;;;;10.73;5.68;;;9.90;1.00;;;;;;4969743;28;20077;-72
2023/12/18 12:40:38;;;;;;;9.23;5.28;;;9.80;99.90;;;;;;4968283;28;20436;-72
2023/12/18 12:43:05;;;;;;;9.48;5.93;;;9.80;73.30;;;;;;4969520;28;20058;-72
2023/12/18 12:45:31;;;;;;;9.48;5.47;;;10.10;99.90;;;;;;4966374;28;20062;-72
2023/12/18 12:47:58;;;;;;;10.38;5.97;;;10.00;1.00;;;;;;4951959;28;20035;-72